createdAt,value
2022-10-24T00:00:09.908Z,99419.06
2022-10-24T00:01:19.251Z,99378.81
2022-10-24T00:02:21.178Z,99416.94
2022-10-24T00:03:23.818Z,99379.88
2022-10-24T00:04:29.971Z,99410.47
2022-10-24T00:05:34.551Z,99408.41
2022-10-24T00:06:36.578Z,99400.34
2022-10-24T00:07:38.278Z,99401.91
2022-10-24T00:08:41.704Z,99409.84
2022-10-24T00:09:49.428Z,99403.00
2022-10-24T00:10:51.429Z,99409.34
2022-10-24T00:11:54.715Z,99391.47
2022-10-24T00:12:57.580Z,99416.78
2022-10-24T00:14:05.475Z,99414.50
2022-10-24T00:15:09.060Z,99403.66
2022-10-24T00:16:15.889Z,99400.69
2022-10-24T00:17:19.358Z,99411.59
2022-10-24T00:18:21.057Z,99399.19
2022-10-24T00:19:23.994Z,99391.50
2022-10-24T00:20:26.761Z,99398.34
2022-10-24T00:21:29.847Z,99404.84
2022-10-24T00:22:31.867Z,99415.63
2022-10-24T00:23:36.416Z,99396.16
2022-10-24T00:24:40.655Z,99399.41
2022-10-24T00:25:43.757Z,99401.44
2022-10-24T00:26:46.002Z,99396.16
2022-10-24T00:27:49.861Z,99387.97
2022-10-24T00:28:55.103Z,99401.91
2022-10-24T00:30:02.125Z,99394.88
2022-10-24T00:31:06.570Z,99392.25
2022-10-24T00:32:11.794Z,99392.06
2022-10-24T00:33:13.789Z,99396.41
2022-10-24T00:34:17.763Z,99398.53
2022-10-24T00:35:28.739Z,99391.13
2022-10-24T00:36:32.119Z,99363.44
2022-10-24T00:37:33.850Z,99386.31
2022-10-24T00:38:36.282Z,99407.44
2022-10-24T00:39:43.300Z,99418.19
2022-10-24T00:40:45.233Z,99357.22
2022-10-24T00:41:47.377Z,99404.94
2022-10-24T00:42:51.327Z,99404.63
2022-10-24T00:44:33.992Z,99435.94
2022-10-24T00:46:01.108Z,99422.53
2022-10-24T00:47:12.599Z,99397.47
2022-10-24T00:48:20.681Z,99422.16
2022-10-24T00:49:32.026Z,99423.00
2022-10-24T00:50:36.361Z,99421.00
2022-10-24T00:51:38.789Z,99429.53
2022-10-24T00:52:49.273Z,99405.81
2022-10-24T00:53:55.109Z,99416.38
2022-10-24T00:55:01.796Z,99411.88
2022-10-24T00:56:07.727Z,99412.19
2022-10-24T00:57:22.103Z,99420.22
2022-10-24T00:58:29.979Z,99416.09
2022-10-24T00:59:36.675Z,99433.41
2022-10-24T01:00:39.148Z,99414.53
2022-10-24T01:01:43.894Z,99419.06
2022-10-24T01:02:50.277Z,99416.94
2022-10-24T01:03:52.720Z,99434.81
2022-10-24T01:04:56.749Z,99435.00
2022-10-24T01:06:31.190Z,99415.69
2022-10-24T01:08:05.386Z,99408.09
2022-10-24T01:09:38.988Z,99415.59
2022-10-24T01:11:13.117Z,99397.16
2022-10-24T01:12:24.852Z,99406.13
2022-10-24T01:14:12.798Z,99349.81
2022-10-24T01:15:36.236Z,99402.75
2022-10-24T01:17:13.721Z,99396.75
2022-10-24T01:18:30.541Z,99395.59
2022-10-24T01:20:01.485Z,99412.56
2022-10-24T01:21:15.594Z,99403.19
2022-10-24T01:22:33.248Z,99367.81
2022-10-24T01:23:43.811Z,99399.50
2022-10-24T01:24:56.197Z,99412.03
2022-10-24T01:26:23.904Z,99402.66
2022-10-24T01:27:57.497Z,99393.34
2022-10-24T01:29:23.397Z,99399.19
2022-10-24T01:30:35.666Z,99402.56
2022-10-24T01:32:09.201Z,99406.34
2022-10-24T01:33:18.849Z,99391.53
2022-10-24T01:34:33.811Z,99392.84
2022-10-24T01:35:53.173Z,99370.03
2022-10-24T01:37:15.054Z,99392.84
2022-10-24T01:38:41.466Z,99381.84
2022-10-24T01:39:48.681Z,99409.72
2022-10-24T01:41:03.381Z,99402.09
2022-10-24T01:42:07.577Z,99377.44
2022-10-24T01:43:15.744Z,99390.31
2022-10-24T01:44:26.889Z,99389.88
2022-10-24T01:45:35.705Z,99372.47
2022-10-24T01:46:44.159Z,99386.84
2022-10-24T01:47:50.801Z,99379.16
2022-10-24T01:49:00.286Z,99385.34
2022-10-24T01:50:10.977Z,99397.78
2022-10-24T01:51:19.501Z,99398.94
2022-10-24T01:52:21.800Z,99340.84
2022-10-24T01:53:26.220Z,99391.97
2022-10-24T01:54:32.121Z,99393.44
2022-10-24T01:55:34.489Z,99402.22
2022-10-24T01:56:36.222Z,99392.72
2022-10-24T01:57:39.914Z,99387.84
2022-10-24T01:58:41.625Z,99372.78
2022-10-24T01:59:46.783Z,99383.22
2022-10-24T02:01:00.967Z,99399.66
2022-10-24T02:02:40.715Z,99400.59
2022-10-24T02:03:50.425Z,99380.34
2022-10-24T02:05:05.701Z,99381.00
2022-10-24T02:06:16.583Z,99392.06
2022-10-24T02:07:21.558Z,99397.03
2022-10-24T02:08:30.462Z,99368.03
2022-10-24T02:09:39.947Z,99389.22
2022-10-24T02:10:48.783Z,99403.34
2022-10-24T02:11:52.527Z,99400.78
2022-10-24T02:13:14.944Z,99392.38
2022-10-24T02:14:33.809Z,99396.06
2022-10-24T02:15:41.056Z,99381.13
2022-10-24T02:16:44.661Z,99382.66
2022-10-24T02:17:47.565Z,99389.31
2022-10-24T02:18:53.326Z,99397.41
2022-10-24T02:19:55.660Z,99382.59
2022-10-24T02:21:19.895Z,99398.59
2022-10-24T02:22:52.101Z,99391.03
2022-10-24T02:24:09.860Z,99375.06
2022-10-24T02:25:18.507Z,99388.38
2022-10-24T02:26:47.061Z,99377.94
2022-10-24T02:28:00.052Z,99364.69
2022-10-24T02:29:16.327Z,99383.97
2022-10-24T02:30:22.727Z,99376.69
2022-10-24T02:31:27.666Z,99371.75
2022-10-24T02:32:34.690Z,99374.78
2022-10-24T02:33:41.960Z,99369.72
2022-10-24T02:34:44.884Z,99377.22
2022-10-24T02:35:48.896Z,99360.13
2022-10-24T02:36:56.319Z,99369.47
2022-10-24T02:38:04.849Z,99359.63
2022-10-24T02:39:10.604Z,99361.06
2022-10-24T02:40:14.478Z,99349.47
2022-10-24T02:41:22.028Z,99355.03
2022-10-24T02:43:32.760Z,99352.16
2022-10-24T02:44:48.654Z,99359.16
2022-10-24T02:46:19.015Z,99363.91
2022-10-24T02:47:23.323Z,99363.59
2022-10-24T02:48:36.375Z,99351.19
2022-10-24T02:49:40.241Z,99350.38
2022-10-24T02:50:44.295Z,99368.41
2022-10-24T02:51:48.993Z,99350.75
2022-10-24T02:52:51.155Z,99356.44
2022-10-24T02:53:52.963Z,99345.63
2022-10-24T02:54:57.679Z,99348.53
2022-10-24T02:55:59.869Z,99349.22
2022-10-24T02:57:03.849Z,99344.50
2022-10-24T02:58:05.682Z,99340.69
2022-10-24T03:00:12.058Z,99346.31
2022-10-24T03:01:15.810Z,99337.56
2022-10-24T03:02:17.686Z,99354.50
2022-10-24T03:03:19.429Z,99353.06
2022-10-24T03:04:23.549Z,99370.88
2022-10-24T03:05:27.522Z,99360.03
2022-10-24T03:06:29.276Z,99348.75
2022-10-24T03:07:31.853Z,99353.91
2022-10-24T03:08:33.638Z,99368.91
2022-10-24T03:09:35.333Z,99341.53
2022-10-24T03:10:37.244Z,99362.50
2022-10-24T03:11:40.128Z,99355.91
2022-10-24T03:12:41.958Z,99365.28
2022-10-24T03:13:44.185Z,99373.25
2022-10-24T03:14:46.155Z,99374.41
2022-10-24T03:15:49.041Z,99373.81
2022-10-24T03:16:51.797Z,99376.13
2022-10-24T03:17:55.309Z,99373.25
2022-10-24T03:18:59.795Z,99371.16
2022-10-24T03:20:02.669Z,99371.53
2022-10-24T03:21:05.932Z,99364.56
2022-10-24T03:22:07.887Z,99367.00
2022-10-24T03:23:09.772Z,99362.53
2022-10-24T03:24:11.774Z,99362.88
2022-10-24T03:25:14.732Z,99348.22
2022-10-24T03:26:17.245Z,99371.88
2022-10-24T03:27:22.925Z,99368.66
2022-10-24T03:28:24.852Z,99371.56
2022-10-24T03:29:28.292Z,99367.59
2022-10-24T03:30:30.387Z,99357.16
2022-10-24T03:31:34.428Z,99368.81
2022-10-24T03:32:40.868Z,99359.09
2022-10-24T03:33:44.079Z,99350.41
2022-10-24T03:34:46.727Z,99356.06
2022-10-24T03:35:54.584Z,99343.00
2022-10-24T03:36:58.374Z,99343.69
2022-10-24T03:38:01.095Z,99357.34
2022-10-24T03:39:05.000Z,99358.69
2022-10-24T03:40:10.036Z,99359.03
2022-10-24T03:41:12.224Z,99361.75
2022-10-24T03:42:16.492Z,99361.41
2022-10-24T03:43:19.238Z,99364.88
2022-10-24T03:44:21.225Z,99358.44
2022-10-24T03:45:23.184Z,99362.00
2022-10-24T03:46:27.894Z,99355.75
2022-10-24T03:47:29.555Z,99379.50
2022-10-24T03:48:32.733Z,99362.31
2022-10-24T03:49:34.382Z,99364.84
2022-10-24T03:50:37.485Z,99321.53
2022-10-24T03:51:39.909Z,99325.50
2022-10-24T03:52:46.745Z,99366.00
2022-10-24T03:53:49.364Z,99366.31
2022-10-24T03:54:51.333Z,99374.56
2022-10-24T03:55:57.377Z,99371.59
2022-10-24T03:57:00.613Z,99382.50
2022-10-24T03:58:02.628Z,99379.84
2022-10-24T03:59:07.180Z,99372.53
2022-10-24T04:00:09.809Z,99357.06
2022-10-24T04:01:21.129Z,99377.16
2022-10-24T04:02:24.824Z,99370.13
2022-10-24T04:03:28.728Z,99379.28
2022-10-24T04:04:30.596Z,99338.69
2022-10-24T04:05:33.797Z,99390.75
2022-10-24T04:06:36.651Z,99399.28
2022-10-24T04:07:40.992Z,99369.53
2022-10-24T04:08:43.977Z,99392.03
2022-10-24T04:09:46.072Z,99337.03
2022-10-24T04:10:54.145Z,99389.25
2022-10-24T04:11:57.423Z,99396.13
2022-10-24T04:12:59.571Z,99394.66
2022-10-24T04:15:05.363Z,99389.19
2022-10-24T04:16:08.544Z,99366.09
2022-10-24T04:17:10.241Z,99397.19
2022-10-24T04:18:12.873Z,99382.13
2022-10-24T04:19:17.892Z,99374.34
2022-10-24T04:20:23.283Z,99373.56
2022-10-24T04:21:24.955Z,99389.25
2022-10-24T04:22:28.862Z,99388.13
2022-10-24T04:23:37.097Z,99388.31
2022-10-24T04:24:39.850Z,99368.81
2022-10-24T04:25:43.615Z,99384.22
2022-10-24T04:26:45.537Z,99387.81
2022-10-24T04:27:48.059Z,99382.31
2022-10-24T04:28:50.229Z,99380.41
2022-10-24T04:29:53.190Z,99366.31
2022-10-24T04:30:58.155Z,99382.19
2022-10-24T04:32:02.101Z,99382.31
2022-10-24T04:33:03.973Z,99375.34
2022-10-24T04:34:06.704Z,99358.94
2022-10-24T04:35:10.257Z,99383.91
2022-10-24T04:36:12.974Z,99363.34
2022-10-24T04:37:14.778Z,99378.91
2022-10-24T04:38:16.811Z,99380.25
2022-10-24T04:39:19.806Z,99385.13
2022-10-24T04:40:23.657Z,99399.72
2022-10-24T04:41:25.625Z,99374.41
2022-10-24T04:42:30.126Z,99392.41
2022-10-24T04:43:31.700Z,99392.56
2022-10-24T04:44:33.417Z,99400.81
2022-10-24T04:45:36.358Z,99400.72
2022-10-24T04:46:39.382Z,99397.78
2022-10-24T04:47:42.684Z,99413.19
2022-10-24T04:48:47.169Z,99412.22
2022-10-24T04:49:50.432Z,99413.44
2022-10-24T04:50:52.343Z,99433.41
2022-10-24T04:51:54.166Z,99395.03
2022-10-24T04:52:56.531Z,99445.19
2022-10-24T04:53:58.269Z,99415.75
2022-10-24T04:55:01.294Z,99446.88
2022-10-24T04:56:06.955Z,99435.31
2022-10-24T04:57:10.244Z,99424.50
2022-10-24T04:58:12.222Z,99427.53
2022-10-24T04:59:13.834Z,99438.44
2022-10-24T05:00:18.881Z,99431.94
2022-10-24T05:01:20.994Z,99434.34
2022-10-24T05:02:22.829Z,99354.22
2022-10-24T05:03:25.475Z,99473.06
2022-10-24T05:04:27.492Z,99413.84
2022-10-24T05:05:30.953Z,99446.47
2022-10-24T05:06:35.997Z,99374.41
2022-10-24T05:07:42.528Z,99394.09
2022-10-24T05:08:44.561Z,99441.94
2022-10-24T05:09:48.398Z,99442.56
2022-10-24T05:10:51.695Z,99425.50
2022-10-24T05:11:57.422Z,99444.50
2022-10-24T05:12:59.597Z,99453.13
2022-10-24T05:14:02.710Z,99466.72
2022-10-24T05:15:06.551Z,99493.03
2022-10-24T05:16:08.418Z,99490.97
2022-10-24T05:17:11.589Z,99531.28
2022-10-24T05:18:13.322Z,99521.41
2022-10-24T05:19:16.484Z,99510.22
2022-10-24T05:20:18.619Z,99511.31
2022-10-24T05:21:20.438Z,99529.81
2022-10-24T05:22:22.334Z,99518.56
2022-10-24T05:23:24.779Z,99523.84
2022-10-24T05:24:26.816Z,99512.94
2022-10-24T05:25:28.898Z,99501.59
2022-10-24T05:26:30.722Z,99484.25
2022-10-24T05:27:32.429Z,99479.38
2022-10-24T05:28:34.134Z,99464.75
2022-10-24T05:29:37.077Z,99479.53
2022-10-24T05:30:38.934Z,99482.72
2022-10-24T05:31:41.335Z,99486.09
2022-10-24T05:32:43.527Z,99479.97
2022-10-24T05:33:45.381Z,99483.69
2022-10-24T05:34:48.345Z,99483.06
2022-10-24T05:35:51.392Z,99482.44
2022-10-24T05:36:54.376Z,99458.06
2022-10-24T05:37:56.377Z,99442.09
2022-10-24T05:38:58.145Z,99431.06
2022-10-24T05:40:00.054Z,99447.22
2022-10-24T05:41:01.732Z,99416.94
2022-10-24T05:42:04.323Z,99458.50
2022-10-24T05:43:06.115Z,99451.75
2022-10-24T05:44:08.039Z,99462.31
2022-10-24T05:45:10.694Z,99463.91
2022-10-24T05:46:13.175Z,99441.38
2022-10-24T05:47:14.881Z,99463.28
2022-10-24T05:48:16.835Z,99456.44
2022-10-24T05:49:18.602Z,99464.00
2022-10-24T05:50:20.613Z,99433.53
2022-10-24T05:51:22.954Z,99466.03
2022-10-24T05:52:25.055Z,99470.13
2022-10-24T05:53:28.882Z,99456.41
2022-10-24T05:54:37.792Z,99471.09
2022-10-24T05:55:50.638Z,99504.84
2022-10-24T05:56:52.532Z,99496.81
2022-10-24T05:57:55.152Z,99481.31
2022-10-24T05:58:57.979Z,99497.78
2022-10-24T06:00:00.697Z,99485.22
2022-10-24T06:01:02.686Z,99482.69
2022-10-24T06:02:04.865Z,99474.78
2022-10-24T06:03:06.547Z,99480.91
2022-10-24T06:04:11.364Z,99488.06
2022-10-24T06:05:15.580Z,99467.81
2022-10-24T06:06:17.649Z,99491.56
2022-10-24T06:07:19.373Z,99475.50
2022-10-24T06:08:24.244Z,99492.91
2022-10-24T06:09:26.867Z,99497.13
2022-10-24T06:10:29.842Z,99497.53
2022-10-24T06:11:31.832Z,99510.25
2022-10-24T06:12:36.230Z,99506.69
2022-10-24T06:13:39.958Z,99519.47
2022-10-24T06:14:42.306Z,99525.28
2022-10-24T06:15:46.432Z,99527.03
2022-10-24T06:16:49.847Z,99525.59
2022-10-24T06:17:52.460Z,99502.66
2022-10-24T06:18:57.370Z,99515.03
2022-10-24T06:19:59.124Z,99520.31
2022-10-24T06:21:01.609Z,99520.94
2022-10-24T06:22:04.664Z,99517.38
2022-10-24T06:23:07.786Z,99530.66
2022-10-24T06:24:10.574Z,99532.91
2022-10-24T06:25:13.615Z,99540.97
2022-10-24T06:26:16.218Z,99540.91
2022-10-24T06:27:20.398Z,99511.22
2022-10-24T06:28:22.396Z,99541.41
2022-10-24T06:29:24.250Z,99553.91
2022-10-24T06:30:26.528Z,99556.56
2022-10-24T06:31:28.447Z,99554.41
2022-10-24T06:32:32.432Z,99546.72
2022-10-24T06:33:34.844Z,99536.34
2022-10-24T06:34:38.135Z,99551.44
2022-10-24T06:35:41.466Z,99542.78
2022-10-24T06:36:43.702Z,99562.94
2022-10-24T06:37:48.007Z,99563.63
2022-10-24T06:38:50.431Z,99581.56
2022-10-24T06:39:52.536Z,99585.13
2022-10-24T06:40:54.239Z,99574.16
2022-10-24T06:41:58.076Z,99591.56
2022-10-24T06:43:00.948Z,99559.91
2022-10-24T06:44:06.641Z,99555.09
2022-10-24T06:45:18.319Z,99562.97
2022-10-24T06:46:23.732Z,99566.72
2022-10-24T06:47:29.229Z,99560.72
2022-10-24T06:48:31.522Z,99551.22
2022-10-24T06:49:33.700Z,99547.66
2022-10-24T06:50:37.379Z,99526.34
2022-10-24T06:51:40.798Z,99537.63
2022-10-24T06:52:43.056Z,99545.22
2022-10-24T06:53:44.990Z,99539.13
2022-10-24T06:54:46.628Z,99531.13
2022-10-24T06:55:49.433Z,99533.75
2022-10-24T06:56:52.474Z,99514.66
2022-10-24T06:57:54.302Z,99515.94
2022-10-24T06:58:56.148Z,99500.56
2022-10-24T06:59:57.835Z,99500.75
2022-10-24T07:01:01.329Z,99514.03
2022-10-24T07:02:05.853Z,99534.69
2022-10-24T07:03:08.040Z,99530.75
2022-10-24T07:04:10.263Z,99536.56
2022-10-24T07:05:14.540Z,99532.47
2022-10-24T07:06:29.976Z,99511.69
2022-10-24T07:07:32.114Z,99484.38
2022-10-24T07:08:35.533Z,99524.44
2022-10-24T07:09:37.376Z,99538.47
2022-10-24T07:10:41.469Z,99548.91
2022-10-24T07:11:47.216Z,99554.09
2022-10-24T07:12:49.431Z,99550.78
2022-10-24T07:13:53.324Z,99548.38
2022-10-24T07:15:02.672Z,99537.91
2022-10-24T07:16:07.308Z,99543.75
2022-10-24T07:17:13.751Z,99547.03
2022-10-24T07:18:17.643Z,99545.63
2022-10-24T07:19:23.185Z,99525.59
2022-10-24T07:20:26.382Z,99550.59
2022-10-24T07:21:30.870Z,99549.66
2022-10-24T07:22:34.034Z,99541.84
2022-10-24T07:23:42.213Z,99547.03
2022-10-24T07:24:46.247Z,99551.44
2022-10-24T07:25:48.117Z,99554.81
2022-10-24T07:26:50.459Z,99567.16
2022-10-24T07:27:54.746Z,99547.34
2022-10-24T07:30:07.268Z,99567.41
2022-10-24T07:31:09.947Z,99543.56
2022-10-24T07:32:12.117Z,99545.47
2022-10-24T07:33:20.089Z,99548.78
2022-10-24T07:34:22.564Z,99553.94
2022-10-24T07:35:24.877Z,99545.88
2022-10-24T07:36:27.717Z,99548.78
2022-10-24T07:37:30.245Z,99546.03
2022-10-24T07:38:32.346Z,99551.72
2022-10-24T07:39:35.401Z,99564.16
2022-10-24T07:40:38.465Z,99547.44
2022-10-24T07:41:42.432Z,99551.19
2022-10-24T07:42:45.675Z,99559.44
2022-10-24T07:43:48.417Z,99563.00
2022-10-24T07:44:50.193Z,99553.31
2022-10-24T07:45:52.908Z,99556.50
2022-10-24T07:46:54.931Z,99551.88
2022-10-24T07:47:56.850Z,99523.16
2022-10-24T07:49:01.384Z,99546.50
2022-10-24T07:50:05.091Z,99542.91
2022-10-24T07:51:10.200Z,99561.81
2022-10-24T07:52:12.064Z,99553.00
2022-10-24T07:53:14.570Z,99548.34
2022-10-24T07:54:16.777Z,99533.53
2022-10-24T07:55:20.135Z,99538.03
2022-10-24T07:56:24.312Z,99543.06
2022-10-24T07:57:27.348Z,99543.06
2022-10-24T07:58:29.881Z,99543.53
2022-10-24T07:59:41.702Z,99529.38
2022-10-24T08:00:46.065Z,99541.94
2022-10-24T08:01:51.030Z,99538.34
2022-10-24T08:02:53.209Z,99546.69
2022-10-24T08:03:56.713Z,99550.16
2022-10-24T08:05:00.738Z,99548.38
2022-10-24T08:06:12.218Z,99531.41
2022-10-24T08:07:14.526Z,99536.59
2022-10-24T08:08:34.902Z,99530.78
2022-10-24T08:09:39.785Z,99539.22
2022-10-24T08:10:44.298Z,99527.19
2022-10-24T08:11:46.991Z,99539.97
2022-10-24T08:12:49.167Z,99545.31
2022-10-24T08:13:55.873Z,99542.69
2022-10-24T08:15:02.892Z,99564.44
2022-10-24T08:16:07.627Z,99550.09
2022-10-24T08:17:11.513Z,99542.38
2022-10-24T08:18:13.739Z,99536.47
2022-10-24T08:19:17.950Z,99543.75
2022-10-24T08:20:21.442Z,99551.56
2022-10-24T08:21:25.333Z,99523.09
2022-10-24T08:22:27.890Z,99549.78
2022-10-24T08:23:29.980Z,99537.63
2022-10-24T08:24:34.474Z,99542.72
2022-10-24T08:25:46.529Z,99532.16
2022-10-24T08:26:49.187Z,99506.81
2022-10-24T08:27:52.136Z,99508.41
2022-10-24T08:28:59.173Z,99551.91
2022-10-24T08:30:01.495Z,99543.88
2022-10-24T08:31:14.318Z,99543.97
2022-10-24T08:32:19.870Z,99545.88
2022-10-24T08:33:22.658Z,99539.44
2022-10-24T08:34:24.860Z,99540.38
2022-10-24T08:35:26.745Z,99545.78
2022-10-24T08:36:32.905Z,99524.25
2022-10-24T08:37:39.178Z,99510.53
2022-10-24T08:38:41.168Z,99505.16
2022-10-24T08:39:43.015Z,99496.63
2022-10-24T08:40:48.735Z,99525.53
2022-10-24T08:42:00.324Z,99530.06
2022-10-24T08:43:03.580Z,99542.94
2022-10-24T08:44:30.790Z,99524.56
2022-10-24T08:45:44.548Z,99529.84
2022-10-24T08:47:06.626Z,99526.13
2022-10-24T08:48:16.300Z,99541.97
2022-10-24T08:49:29.711Z,99537.22
2022-10-24T08:50:34.028Z,99548.81
2022-10-24T08:51:54.805Z,99554.09
2022-10-24T08:53:19.078Z,99549.03
2022-10-24T08:54:25.448Z,99554.31
2022-10-24T08:55:48.905Z,99546.31
2022-10-24T08:56:55.888Z,99538.94
2022-10-24T08:58:00.132Z,99542.91
2022-10-24T08:59:03.605Z,99534.06
2022-10-24T09:00:23.451Z,99541.00
2022-10-24T09:02:02.075Z,99529.72
2022-10-24T09:03:26.590Z,99535.34
2022-10-24T09:04:45.643Z,99539.66
2022-10-24T09:05:50.932Z,99534.69
2022-10-24T09:06:54.192Z,99538.28
2022-10-24T09:08:04.141Z,99538.78
2022-10-24T09:09:08.937Z,99544.41
2022-10-24T09:10:20.405Z,99539.75
2022-10-24T09:11:52.304Z,99542.78
2022-10-24T09:12:53.883Z,99552.50
2022-10-24T09:13:55.768Z,99557.16
2022-10-24T09:14:59.403Z,99553.47
2022-10-24T09:16:01.926Z,99548.06
2022-10-24T09:17:09.554Z,99547.44
2022-10-24T09:18:21.177Z,99549.44
2022-10-24T09:19:25.286Z,99560.97
2022-10-24T09:20:32.730Z,99558.00
2022-10-24T09:21:34.551Z,99558.84
2022-10-24T09:22:38.453Z,99552.59
2022-10-24T09:23:43.782Z,99559.00
2022-10-24T09:24:51.262Z,99551.72
2022-10-24T09:25:56.597Z,99559.53
2022-10-24T09:27:00.473Z,99564.94
2022-10-24T09:28:04.659Z,99567.69
2022-10-24T09:29:06.243Z,99585.19
2022-10-24T09:30:16.315Z,99567.44
2022-10-24T09:31:20.588Z,99566.09
2022-10-24T09:32:26.853Z,99573.25
2022-10-24T09:33:31.556Z,99571.47
2022-10-24T09:34:33.142Z,99578.34
2022-10-24T09:35:35.494Z,99570.63
2022-10-24T09:36:39.739Z,99578.19
2022-10-24T09:37:47.150Z,99572.31
2022-10-24T09:38:49.307Z,99571.97
2022-10-24T09:40:06.614Z,99571.47
2022-10-24T09:41:18.703Z,99563.59
2022-10-24T09:42:23.711Z,99564.63
2022-10-24T09:43:40.816Z,99569.25
2022-10-24T09:44:43.954Z,99576.38
2022-10-24T09:45:49.216Z,99562.31
2022-10-24T09:46:50.871Z,99566.66
2022-10-24T09:47:58.417Z,99569.28
2022-10-24T09:49:17.569Z,99570.00
2022-10-24T09:50:21.461Z,99574.50
2022-10-24T09:51:34.981Z,99567.41
2022-10-24T09:52:36.576Z,99562.84
2022-10-24T09:53:56.865Z,99571.50
2022-10-24T09:55:19.940Z,99571.28
2022-10-24T09:56:32.227Z,99560.34
2022-10-24T09:57:39.741Z,99559.78
2022-10-24T09:58:42.171Z,99567.16
2022-10-24T09:59:50.288Z,99572.75
2022-10-24T10:01:20.100Z,99563.16
2022-10-24T10:02:34.340Z,99576.16
2022-10-24T10:03:36.067Z,99571.50
2022-10-24T10:04:38.832Z,99555.31
2022-10-24T10:05:45.685Z,99570.47
2022-10-24T10:06:50.150Z,99571.41
2022-10-24T10:07:52.888Z,99575.53
2022-10-24T10:08:56.697Z,99579.19
2022-10-24T10:10:22.512Z,99577.88
2022-10-24T10:11:35.317Z,99579.72
2022-10-24T10:12:42.125Z,99579.56
2022-10-24T10:13:55.518Z,99580.66
2022-10-24T10:14:57.322Z,99577.44
2022-10-24T10:16:01.359Z,99578.16
2022-10-24T10:17:06.676Z,99580.66
2022-10-24T10:18:22.771Z,99586.59
2022-10-24T10:19:24.637Z,99587.16
2022-10-24T10:20:35.737Z,99591.75
2022-10-24T10:21:55.378Z,99581.41
2022-10-24T10:23:16.559Z,99587.19
2022-10-24T10:24:39.709Z,99584.31
2022-10-24T10:25:41.326Z,99587.69
2022-10-24T10:26:45.626Z,99588.06
2022-10-24T10:27:51.207Z,99589.41
2022-10-24T10:29:25.388Z,99590.22
2022-10-24T10:30:27.250Z,99599.72
2022-10-24T10:31:35.330Z,99601.16
2022-10-24T10:33:14.745Z,99606.22
2022-10-24T10:34:39.022Z,99598.16
2022-10-24T10:36:03.442Z,99605.00
2022-10-24T10:37:23.916Z,99608.25
2022-10-24T10:38:50.246Z,99607.75
2022-10-24T10:40:07.740Z,99616.19
2022-10-24T10:41:39.330Z,99614.97
2022-10-24T10:43:10.652Z,99621.22
2022-10-24T10:44:32.192Z,99624.44
2022-10-24T10:45:45.708Z,99629.47
2022-10-24T10:47:11.772Z,99628.47
2022-10-24T10:48:32.971Z,99639.66
2022-10-24T10:49:42.927Z,99643.91
2022-10-24T10:50:56.138Z,99635.41
2022-10-24T10:52:01.128Z,99632.38
2022-10-24T10:53:24.990Z,99633.69
2022-10-24T10:54:26.445Z,99638.03
2022-10-24T10:55:58.404Z,99636.53
2022-10-24T10:57:17.427Z,99644.69
2022-10-24T10:58:22.106Z,99641.63
2022-10-24T10:59:39.905Z,99643.88
2022-10-24T11:01:12.966Z,99638.72
2022-10-24T11:02:20.466Z,99636.41
2022-10-24T11:03:22.966Z,99634.06
2022-10-24T11:04:42.652Z,99635.00
2022-10-24T11:05:47.029Z,99647.34
2022-10-24T11:08:29.605Z,99634.84
2022-10-24T11:09:37.206Z,99632.19
2022-10-24T11:10:47.631Z,99629.81
2022-10-24T11:11:59.061Z,99633.25
2022-10-24T11:13:07.304Z,99630.69
2022-10-24T11:14:22.403Z,99632.09
2022-10-24T11:15:29.579Z,99635.19
2022-10-24T11:16:32.321Z,99633.53
2022-10-24T11:17:46.268Z,99636.34
2022-10-24T11:18:52.467Z,99637.28
2022-10-24T11:20:05.136Z,99633.66
2022-10-24T11:21:18.212Z,99645.53
2022-10-24T11:22:26.157Z,99647.53
2022-10-24T11:24:52.211Z,99630.16
2022-10-24T11:26:15.399Z,99637.50
2022-10-24T11:27:24.439Z,99649.13
2022-10-24T11:28:36.740Z,99635.97
2022-10-24T11:30:01.934Z,99646.34
2022-10-24T11:31:10.201Z,99642.28
2022-10-24T11:32:18.426Z,99640.47
2022-10-24T11:33:31.431Z,99639.06
2022-10-24T11:34:43.029Z,99635.41
2022-10-24T11:36:02.032Z,99623.38
2022-10-24T11:37:09.950Z,99632.91
2022-10-24T11:38:22.766Z,99632.38
2022-10-24T11:39:27.096Z,99635.31
2022-10-24T11:40:30.515Z,99623.38
2022-10-24T11:42:01.572Z,99626.47
2022-10-24T11:43:27.197Z,99640.00
2022-10-24T11:44:47.190Z,99625.13
2022-10-24T11:45:58.622Z,99626.47
2022-10-24T11:47:33.921Z,99620.22
2022-10-24T11:48:35.526Z,99614.47
2022-10-24T11:49:43.699Z,99609.75
2022-10-24T11:51:14.978Z,99610.13
2022-10-24T11:52:26.877Z,99610.75
2022-10-24T11:53:31.485Z,99604.19
2022-10-24T11:54:42.803Z,99598.19
2022-10-24T11:55:53.643Z,99593.94
2022-10-24T11:57:01.413Z,99593.94
2022-10-24T11:58:05.302Z,99600.66
2022-10-24T11:59:12.324Z,99601.66
2022-10-24T12:00:24.146Z,99591.97
2022-10-24T12:01:58.165Z,99588.59
2022-10-24T12:03:08.436Z,99596.75
2022-10-24T12:04:34.722Z,99587.75
2022-10-24T12:05:56.980Z,99595.34
2022-10-24T12:07:08.024Z,99591.84
2022-10-24T12:08:35.350Z,99585.81
2022-10-24T12:09:51.979Z,99578.84
2022-10-24T12:11:05.660Z,99588.75
2022-10-24T12:12:16.626Z,99576.41
2022-10-24T12:13:36.623Z,99571.63
2022-10-24T12:14:57.844Z,99579.22
2022-10-24T12:16:26.120Z,99586.34
2022-10-24T12:17:49.516Z,99577.97
2022-10-24T12:18:59.759Z,99587.13
2022-10-24T12:20:02.633Z,99586.38
2022-10-24T12:21:23.386Z,99590.50
2022-10-24T12:22:36.008Z,99595.59
2022-10-24T12:23:38.440Z,99590.22
2022-10-24T12:24:41.307Z,99576.00
2022-10-24T12:25:47.277Z,99568.75
2022-10-24T12:27:02.734Z,99580.47
2022-10-24T12:28:26.009Z,99577.69
2022-10-24T12:29:28.110Z,99573.09
2022-10-24T12:30:34.824Z,99577.13
2022-10-24T12:31:38.354Z,99577.00
2022-10-24T12:32:45.197Z,99557.38
2022-10-24T12:34:16.213Z,99585.03
2022-10-24T12:35:31.426Z,99580.47
2022-10-24T12:37:11.988Z,99565.22
2022-10-24T12:38:35.680Z,99560.59
2022-10-24T12:39:45.761Z,99568.94
2022-10-24T12:40:52.175Z,99565.34
2022-10-24T12:41:55.963Z,99569.38
2022-10-24T12:42:57.625Z,99565.06
2022-10-24T12:44:26.025Z,99560.72
2022-10-24T12:45:30.669Z,99571.19
2022-10-24T12:46:38.268Z,99569.25
2022-10-24T12:47:42.274Z,99576.06
2022-10-24T12:49:05.726Z,99579.47
2022-10-24T12:50:22.232Z,99576.31
2022-10-24T12:51:34.511Z,99578.78
2022-10-24T12:52:38.860Z,99589.47
2022-10-24T12:54:00.351Z,99582.28
2022-10-24T12:55:02.749Z,99580.38
2022-10-24T12:56:09.344Z,99584.13
2022-10-24T12:57:14.055Z,99578.56
2022-10-24T12:58:34.489Z,99574.25
2022-10-24T12:59:47.703Z,99584.53
2022-10-24T13:01:24.311Z,99588.31
2022-10-24T13:02:53.204Z,99587.78
2022-10-24T13:04:23.588Z,99586.16
2022-10-24T13:05:50.470Z,99585.41
2022-10-24T13:07:11.401Z,99579.34
2022-10-24T13:08:35.658Z,99586.16
2022-10-24T13:09:46.371Z,99584.00
2022-10-24T13:11:08.203Z,99573.63
2022-10-24T13:12:46.678Z,99580.75
2022-10-24T13:14:23.997Z,99582.25
2022-10-24T13:15:31.420Z,99582.53
2022-10-24T13:16:42.178Z,99581.19
2022-10-24T13:18:00.127Z,99586.69
2022-10-24T13:19:07.908Z,99573.94
2022-10-24T13:20:24.923Z,99577.44
2022-10-24T13:21:32.463Z,99564.88
2022-10-24T13:22:37.298Z,99565.28
2022-10-24T13:23:39.360Z,99562.69
2022-10-24T13:24:41.222Z,99573.31
2022-10-24T13:25:44.048Z,99573.84